Time;durP1;ratioP1;P1;durP2;ratioP2;P2;SDS_P1;SDS_P2;PMS_P1;PMS_P2;Temp;Humidity;BMP_temperature;BMP_pressure;BME280_temperature;BME280_humidity;BME280_pressure;Samples;Min_cycle;Max_cycle;Signal;HPM_P1;HPM_P2
2022/07/05 00:01:40;;;;;;;8.13;2.60;;;14.20;83.00;;;;;;5053112;28;20677;-89
2022/07/05 00:04:06;;;;;;;7.13;2.53;;;14.20;82.90;;;;;;5053055;28;20187;-90
2022/07/05 00:06:31;;;;;;;3.57;2.33;;;14.20;82.80;;;;;;5053020;28;20180;-90
2022/07/05 00:08:57;;;;;;;7.73;2.97;;;14.20;82.90;;;;;;5054170;28;20187;-89
2022/07/05 00:11:23;;;;;;;5.80;2.60;;;14.10;82.90;;;;;;5052723;28;20686;-89
2022/07/05 00:13:48;;;;;;;3.30;2.17;;;14.20;82.90;;;;;;5052729;28;20706;-89
2022/07/05 00:16:14;;;;;;;6.93;3.03;;;14.30;82.50;;;;;;5052574;28;20548;-89
2022/07/05 00:18:39;;;;;;;3.73;2.20;;;14.30;82.20;;;;;;5052563;28;20183;-89
2022/07/05 00:21:05;;;;;;;5.77;3.10;;;14.20;82.40;;;;;;5053818;28;20188;-89
2022/07/05 00:23:31;;;;;;;7.77;3.30;;;14.10;82.70;;;;;;5053759;28;20666;-89
2022/07/05 00:25:56;;;;;;;6.67;2.80;;;13.90;83.40;;;;;;5053670;28;20188;-89
2022/07/05 00:28:22;;;;;;;7.50;3.10;;;13.80;83.60;;;;;;5052525;28;20707;-89
2022/07/05 00:30:47;;;;;;;4.80;2.83;;;13.90;83.70;;;;;;5052704;28;20636;-89
2022/07/05 00:33:14;;;;;;;9.27;3.27;;;13.80;83.60;;;;;;5053617;28;20199;-89
2022/07/05 00:35:40;;;;;;;6.23;3.30;;;13.80;84.10;;;;;;5052521;28;20172;-90
2022/07/05 00:38:05;;;;;;;8.37;3.23;;;13.80;84.00;;;;;;5052374;28;20179;-89
2022/07/05 00:40:31;;;;;;;7.97;3.60;;;13.80;84.20;;;;;;5052248;28;20176;-89
2022/07/05 00:42:56;;;;;;;9.33;3.73;;;13.80;84.50;;;;;;5051826;28;20186;-90
2022/07/05 00:45:22;;;;;;;5.50;3.20;;;13.80;84.50;;;;;;5052912;28;20653;-89
2022/07/05 00:47:47;;;;;;;5.23;2.83;;;13.70;84.80;;;;;;5053707;28;20172;-89
2022/07/05 00:50:13;;;;;;;8.70;3.87;;;13.70;84.80;;;;;;5053731;28;20662;-89
2022/07/05 00:52:38;;;;;;;6.47;3.23;;;13.70;84.80;;;;;;5052106;28;20199;-89
2022/07/05 00:55:05;;;;;;;7.47;3.77;;;13.70;84.90;;;;;;5052131;28;20172;-89
2022/07/05 00:57:32;;;;;;;8.97;4.00;;;13.70;85.10;;;;;;5052050;28;20268;-90
2022/07/05 00:59:58;;;;;;;8.13;4.00;;;13.70;85.20;;;;;;5052130;28;20190;-89
2022/07/05 01:02:23;;;;;;;6.03;3.67;;;13.60;85.50;;;;;;5052100;28;20199;-89
2022/07/05 01:04:50;;;;;;;8.17;3.70;;;13.60;85.40;;;;;;5052293;28;20186;-89
2022/07/05 01:07:19;;;;;;;8.10;3.80;;;13.70;85.50;;;;;;5053362;28;20176;-90
2022/07/05 01:09:44;;;;;;;15.20;4.03;;;13.70;85.50;;;;;;5051982;28;20258;-89
2022/07/05 01:12:10;;;;;;;8.50;3.63;;;13.70;85.80;;;;;;5051779;28;20217;-89
2022/07/05 01:14:36;;;;;;;6.10;3.60;;;13.70;85.80;;;;;;5053721;28;20623;-89
2022/07/05 01:17:02;;;;;;;10.43;4.10;;;13.70;85.70;;;;;;5052074;28;20180;-88
2022/07/05 01:19:28;;;;;;;9.73;4.13;;;13.70;86.10;;;;;;5052027;28;20168;-90
2022/07/05 01:21:53;;;;;;;9.23;3.50;;;13.60;86.20;;;;;;5053567;28;20688;-89
2022/07/05 01:24:20;;;;;;;11.40;4.17;;;13.60;86.10;;;;;;5051660;28;20207;-89
2022/07/05 01:26:48;;;;;;;4.17;3.20;;;13.70;86.00;;;;;;5051906;28;20259;-89
2022/07/05 01:29:14;;;;;;;8.03;3.43;;;13.70;85.90;;;;;;5051891;28;20176;-89
2022/07/05 01:31:40;;;;;;;9.47;3.97;;;13.60;86.00;;;;;;5052979;28;20226;-89
2022/07/05 01:34:07;;;;;;;7.17;3.87;;;13.70;86.10;;;;;;5051647;28;20689;-89
2022/07/05 01:36:36;;;;;;;8.00;4.30;;;13.70;86.10;;;;;;5051743;28;20229;-88
2022/07/05 01:39:07;;;;;;;9.80;4.40;;;13.60;86.00;;;;;;5051744;28;20234;-89
2022/07/05 01:41:33;;;;;;;8.20;4.13;;;13.60;86.30;;;;;;5051554;28;20206;-89
2022/07/05 01:43:59;;;;;;;10.90;4.80;;;13.50;86.30;;;;;;5051620;28;20176;-89
2022/07/05 01:46:29;;;;;;;10.03;4.60;;;13.50;86.40;;;;;;5051618;28;20176;-89
2022/07/05 01:48:57;;;;;;;10.37;4.07;;;13.50;86.70;;;;;;5051631;28;20212;-89
2022/07/05 01:51:32;;;;;;;7.43;4.20;;;13.50;86.70;;;;;;5051455;28;20207;-89
2022/07/05 01:53:58;;;;;;;17.13;4.67;;;13.50;86.50;;;;;;5052898;28;20184;-88
2022/07/05 01:56:24;;;;;;;11.97;4.60;;;13.40;86.80;;;;;;5056751;28;20173;-87
2022/07/05 01:58:51;;;;;;;10.77;4.57;;;13.40;86.90;;;;;;5056497;28;20646;-89
2022/07/05 02:01:32;;;;;;;10.43;4.97;;;13.30;86.80;;;;;;5056429;28;20325;-89
2022/07/05 02:03:58;;;;;;;6.77;4.53;;;13.30;86.70;;;;;;5056518;28;20164;-88
2022/07/05 02:06:24;;;;;;;6.90;4.73;;;13.20;86.90;;;;;;5056330;28;20172;-89
2022/07/05 02:08:49;;;;;;;7.27;4.70;;;13.20;87.10;;;;;;5055038;28;20187;-89
2022/07/05 02:11:15;;;;;;;6.73;4.97;;;13.20;87.20;;;;;;5056258;28;20202;-89
2022/07/05 02:13:41;;;;;;;8.23;4.53;;;13.20;87.30;;;;;;5055251;28;20612;-89
2022/07/05 02:16:06;;;;;;;9.47;5.23;;;13.20;87.50;;;;;;5054897;28;20218;-88
2022/07/05 02:18:32;;;;;;;8.17;4.97;;;13.20;87.40;;;;;;5056115;28;20168;-88
2022/07/05 02:20:57;;;;;;;10.47;5.07;;;13.20;87.70;;;;;;5054873;28;20246;-89
2022/07/05 02:23:23;;;;;;;10.10;6.07;;;13.20;87.80;;;;;;5056157;28;20587;-88
2022/07/05 02:25:48;;;;;;;8.50;5.60;;;13.10;88.00;;;;;;5055145;28;20387;-90
2022/07/05 02:28:14;;;;;;;7.87;5.03;;;13.10;88.20;;;;;;5054779;28;20242;-88
2022/07/05 02:30:39;;;;;;;11.90;5.73;;;13.10;88.30;;;;;;5054864;28;20200;-90
2022/07/05 02:33:05;;;;;;;7.17;5.13;;;13.10;88.30;;;;;;5054563;28;20203;-90
2022/07/05 02:35:31;;;;;;;7.50;5.20;;;13.10;88.40;;;;;;5054589;28;20207;-90
2022/07/05 02:37:56;;;;;;;11.77;5.90;;;13.00;88.50;;;;;;5054592;28;20171;-89
2022/07/05 02:40:22;;;;;;;6.50;5.63;;;13.10;88.50;;;;;;5054480;28;20736;-89
2022/07/05 02:42:47;;;;;;;10.40;5.30;;;13.10;88.50;;;;;;5056052;28;20532;-89
2022/07/05 02:45:13;;;;;;;11.00;5.20;;;13.00;88.40;;;;;;5054802;28;20179;-89
2022/07/05 02:47:38;;;;;;;12.40;6.10;;;13.10;88.20;;;;;;5054509;28;20183;-89
2022/07/05 02:50:06;;;;;;;10.93;5.70;;;13.10;88.20;;;;;;5055805;28;20539;-90
2022/07/05 02:52:32;;;;;;;9.07;5.97;;;13.10;88.50;;;;;;5054189;28;20712;-89
2022/07/05 02:54:58;;;;;;;16.23;5.90;;;13.10;88.70;;;;;;5054328;28;20172;-89
2022/07/05 02:57:24;;;;;;;11.57;6.73;;;13.00;89.00;;;;;;5055548;28;20169;-89
2022/07/05 02:59:53;;;;;;;10.83;5.67;;;13.00;89.30;;;;;;5054109;28;20183;-88
2022/07/05 03:02:18;;;;;;;8.67;5.77;;;13.00;89.50;;;;;;5054151;28;20199;-88
2022/07/05 03:04:44;;;;;;;10.93;6.60;;;13.00;89.30;;;;;;5053829;28;20179;-89
2022/07/05 03:07:09;;;;;;;9.97;7.10;;;13.00;89.30;;;;;;5053805;28;20202;-89
2022/07/05 03:09:35;;;;;;;9.53;6.70;;;13.00;89.30;;;;;;5055361;28;20573;-89
2022/07/05 03:12:01;;;;;;;14.67;6.10;;;13.00;89.30;;;;;;5053932;28;20563;-89
2022/07/05 03:14:26;;;;;;;9.33;5.90;;;12.90;89.40;;;;;;5053761;28;20200;-89
2022/07/05 03:16:52;;;;;;;8.73;5.83;;;12.90;89.40;;;;;;5054976;28;20215;-89
2022/07/05 03:19:17;;;;;;;14.90;6.10;;;12.80;89.50;;;;;;5053779;28;20207;-89
2022/07/05 03:21:43;;;;;;;11.17;7.00;;;12.80;89.70;;;;;;5053795;28;20192;-89
2022/07/05 03:24:09;;;;;;;10.27;5.83;;;12.80;89.80;;;;;;5055171;28;20582;-89
2022/07/05 03:26:35;;;;;;;10.63;6.07;;;12.80;89.70;;;;;;5053777;28;20203;-89
2022/07/05 03:29:00;;;;;;;9.90;5.70;;;12.80;89.70;;;;;;5053589;28;20187;-89
2022/07/05 03:31:26;;;;;;;9.03;6.03;;;12.80;89.80;;;;;;5055049;28;20200;-89
2022/07/05 03:33:51;;;;;;;13.50;6.03;;;12.80;89.80;;;;;;5053709;28;20196;-89
2022/07/05 03:36:17;;;;;;;8.80;5.70;;;12.80;89.80;;;;;;5053504;28;20680;-89
2022/07/05 03:38:42;;;;;;;13.57;5.83;;;12.90;89.60;;;;;;5054538;28;20654;-88
2022/07/05 03:41:08;;;;;;;11.93;6.00;;;13.00;89.50;;;;;;5054710;28;20184;-88
2022/07/05 03:43:33;;;;;;;12.90;6.27;;;13.00;89.50;;;;;;5053260;28;20262;-89
2022/07/05 03:45:59;;;;;;;10.13;6.13;;;13.20;89.40;;;;;;5053590;28;20547;-89
2022/07/05 03:48:24;;;;;;;10.50;5.40;;;13.30;89.10;;;;;;5054516;28;20172;-88
2022/07/05 03:50:50;;;;;;;10.13;5.70;;;13.40;89.00;;;;;;5054569;28;20202;-89
2022/07/05 03:53:16;;;;;;;12.10;6.43;;;13.60;88.50;;;;;;5053138;28;20208;-89
2022/07/05 03:55:41;;;;;;;6.70;6.00;;;13.60;88.00;;;;;;5053122;28;20270;-89
2022/07/05 03:58:07;;;;;;;11.60;5.73;;;13.60;88.00;;;;;;5054431;28;20247;-89
2022/07/05 04:00:33;;;;;;;6.40;5.47;;;13.60;87.90;;;;;;5052941;28;20245;-89
2022/07/05 04:02:59;;;;;;;9.50;5.40;;;13.70;87.80;;;;;;5053064;28;20180;-89
2022/07/05 04:05:25;;;;;;;11.33;5.67;;;13.70;87.50;;;;;;5054149;28;20179;-90
2022/07/05 04:07:52;;;;;;;18.63;6.77;;;13.70;87.30;;;;;;5052759;28;20219;-89
2022/07/05 04:10:18;;;;;;;7.60;6.23;;;13.70;87.50;;;;;;5052735;28;20174;-89
2022/07/05 04:12:44;;;;;;;8.80;6.63;;;13.80;87.60;;;;;;5052830;28;20575;-88
2022/07/05 04:15:10;;;;;;;13.00;5.67;;;13.80;87.60;;;;;;5052715;28;20172;-89
2022/07/05 04:17:49;;;;;;;10.23;5.63;;;14.00;87.40;;;;;;5053214;28;20605;-89
2022/07/05 04:20:15;;;;;;;11.33;6.13;;;14.10;87.00;;;;;;5053689;28;20172;-89
2022/07/05 04:22:40;;;;;;;10.57;5.73;;;14.00;86.90;;;;;;5052483;28;20202;-89
2022/07/05 04:25:18;;;;;;;12.57;5.70;;;13.90;87.20;;;;;;5052483;28;20199;-89
2022/07/05 04:27:52;;;;;;;13.37;5.17;;;13.80;87.20;;;;;;5052607;28;20593;-89
2022/07/05 04:30:20;;;;;;;6.60;4.73;;;13.70;87.30;;;;;;5052493;28;20175;-89
2022/07/05 04:32:45;;;;;;;13.10;5.30;;;13.80;87.40;;;;;;5052417;28;20204;-89
2022/07/05 04:35:12;;;;;;;11.70;5.87;;;13.80;87.50;;;;;;5052387;28;20712;-89
2022/07/05 04:37:38;;;;;;;9.67;5.57;;;13.80;87.80;;;;;;5053858;28;20193;-89
2022/07/05 04:40:09;;;;;;;9.60;5.57;;;13.70;88.20;;;;;;5052412;28;20171;-89
2022/07/05 04:42:35;;;;;;;9.10;4.93;;;13.70;88.20;;;;;;5052237;28;20245;-89
2022/07/05 04:45:01;;;;;;;8.73;5.07;;;13.80;88.10;;;;;;5052368;28;20657;-90
2022/07/05 04:47:27;;;;;;;7.70;5.30;;;13.90;88.00;;;;;;5053587;28;20211;-90
2022/07/05 04:49:53;;;;;;;8.43;5.10;;;14.00;88.00;;;;;;5052193;28;20238;-90
2022/07/05 04:52:19;;;;;;;10.40;5.33;;;14.00;87.80;;;;;;5051955;28;20563;-89
2022/07/05 04:54:45;;;;;;;9.10;4.73;;;14.00;87.60;;;;;;5053450;28;20255;-89
2022/07/05 04:57:10;;;;;;;14.90;5.13;;;14.10;87.40;;;;;;5053435;28;20544;-88
2022/07/05 04:59:36;;;;;;;6.87;3.77;;;14.20;87.20;;;;;;5052403;28;20257;-89
2022/07/05 05:02:02;;;;;;;5.70;3.70;;;14.30;86.00;;;;;;5053460;28;20705;-90
2022/07/05 05:04:27;;;;;;;5.87;3.47;;;14.50;85.40;;;;;;5052189;28;20764;-91
2022/07/05 05:06:53;;;;;;;6.33;3.67;;;14.60;84.60;;;;;;5052037;28;20741;-90
2022/07/05 05:09:18;;;;;;;6.80;3.90;;;14.60;85.00;;;;;;5051940;28;20190;-90
2022/07/05 05:11:44;;;;;;;7.03;4.17;;;14.60;84.80;;;;;;5053464;28;20196;-89
2022/07/05 05:14:10;;;;;;;8.30;4.63;;;14.50;84.50;;;;;;5052004;28;20196;-90
2022/07/05 05:16:35;;;;;;;8.03;3.87;;;14.60;84.80;;;;;;5052023;28;20172;-90
2022/07/05 05:19:01;;;;;;;6.37;3.40;;;14.50;84.70;;;;;;5053462;28;20168;-90
2022/07/05 05:21:26;;;;;;;10.87;3.40;;;14.40;84.40;;;;;;5051861;28;20192;-89
2022/07/05 05:23:52;;;;;;;5.20;4.13;;;14.50;84.60;;;;;;5051721;28;20188;-90
2022/07/05 05:26:17;;;;;;;6.47;3.83;;;14.40;84.50;;;;;;5051782;28;20180;-90
2022/07/05 05:28:43;;;;;;;5.43;3.53;;;14.40;84.20;;;;;;5053270;28;20218;-89
2022/07/05 05:31:09;;;;;;;5.17;3.93;;;14.50;84.30;;;;;;5055797;28;20199;-90
2022/07/05 05:33:34;;;;;;;6.93;3.80;;;14.50;84.30;;;;;;5055881;28;20203;-89
2022/07/05 05:36:01;;;;;;;9.60;4.13;;;14.50;83.90;;;;;;5055733;28;20180;-89
2022/07/05 05:38:27;;;;;;;13.33;4.30;;;14.50;84.40;;;;;;5055763;28;20584;-90
2022/07/05 05:40:52;;;;;;;15.60;5.07;;;14.60;84.70;;;;;;5056955;28;20220;-89
2022/07/05 05:43:18;;;;;;;10.27;4.40;;;14.60;84.60;;;;;;5056046;28;20605;-89
2022/07/05 05:45:44;;;;;;;9.10;3.97;;;14.70;84.30;;;;;;5055602;28;20180;-89
2022/07/05 05:48:09;;;;;;;8.10;4.50;;;14.90;84.10;;;;;;5055631;28;20282;-90
2022/07/05 05:50:37;;;;;;;6.20;3.30;;;15.10;83.50;;;;;;5055471;28;20234;-91
2022/07/05 05:53:03;;;;;;;3.73;3.30;;;15.20;82.30;;;;;;5056911;28;20203;-89
2022/07/05 05:55:30;;;;;;;4.57;2.77;;;15.20;82.00;;;;;;5055515;28;20182;-89
2022/07/05 05:57:57;;;;;;;4.37;2.70;;;15.30;81.70;;;;;;5055401;28;20176;-89
2022/07/05 06:00:23;;;;;;;11.83;3.33;;;15.30;81.90;;;;;;5056558;28;20171;-89
2022/07/05 06:02:50;;;;;;;4.93;2.67;;;15.20;81.90;;;;;;5055292;28;20176;-90
2022/07/05 06:05:18;;;;;;;3.33;3.00;;;15.20;81.80;;;;;;5055306;28;20234;-90
2022/07/05 06:07:43;;;;;;;9.23;3.10;;;15.20;82.20;;;;;;5056388;28;20251;-90
2022/07/05 06:10:09;;;;;;;3.77;3.00;;;15.30;83.00;;;;;;5055246;28;20215;-90
2022/07/05 06:12:34;;;;;;;8.40;3.17;;;15.30;82.00;;;;;;5056195;28;20206;-90
2022/07/05 06:15:00;;;;;;;6.43;2.80;;;15.50;82.10;;;;;;5058269;28;20176;-91
2022/07/05 06:17:25;;;;;;;7.03;3.00;;;15.50;81.60;;;;;;5055390;28;20635;-91
2022/07/05 06:19:51;;;;;;;7.80;3.37;;;15.50;80.40;;;;;;5056106;28;20580;-90
2022/07/05 06:22:16;;;;;;;3.90;2.90;;;15.40;81.40;;;;;;5055816;28;20352;-91
2022/07/05 06:24:42;;;;;;;8.40;2.90;;;15.40;81.30;;;;;;5055241;28;20222;-91
2022/07/05 06:27:07;;;;;;;9.07;3.43;;;15.40;80.50;;;;;;5057995;28;20176;-93
2022/07/05 06:29:33;;;;;;;8.63;3.53;;;15.50;81.20;;;;;;5056688;28;20187;-92
2022/07/05 06:31:59;;;;;;;5.73;3.03;;;15.60;80.40;;;;;;5056848;28;20226;-92
2022/07/05 06:34:25;;;;;;;4.30;3.03;;;15.60;80.40;;;;;;5056027;28;20196;-92
2022/07/05 06:36:51;;;;;;;4.18;2.78;;;15.70;80.60;;;;;;5056366;28;20168;-92
2022/07/05 06:39:16;;;;;;;3.75;2.83;;;15.70;80.80;;;;;;5057172;28;20178;-92
2022/07/05 06:41:42;;;;;;;4.97;2.78;;;15.80;80.70;;;;;;5056099;28;20220;-91
2022/07/05 06:44:08;;;;;;;5.70;2.75;;;15.80;80.60;;;;;;5056388;28;20172;-91
2022/07/05 06:46:33;;;;;;;9.53;2.93;;;15.80;79.90;;;;;;5055666;28;20210;-89
2022/07/05 06:48:59;;;;;;;9.63;3.00;;;15.80;80.50;;;;;;5054539;28;20180;-89
2022/07/05 06:51:24;;;;;;;7.43;2.83;;;15.80;80.70;;;;;;5055916;28;20202;-90
2022/07/05 06:53:50;;;;;;;9.82;3.40;;;15.70;81.10;;;;;;5055523;28;20214;-90
2022/07/05 06:56:15;;;;;;;5.30;2.63;;;15.90;80.50;;;;;;5054460;28;20639;-90
2022/07/05 06:58:41;;;;;;;3.67;2.05;;;16.20;80.30;;;;;;5056545;28;20205;-90
2022/07/05 07:01:07;;;;;;;4.43;2.20;;;16.40;77.80;;;;;;5053988;28;20217;-90
2022/07/05 07:03:32;;;;;;;7.10;2.58;;;16.70;79.20;;;;;;5054223;28;20294;-90
2022/07/05 07:05:58;;;;;;;4.85;2.08;;;16.80;78.40;;;;;;5054140;28;20179;-90
2022/07/05 07:11:07;;;;;;;6.60;2.42;;;16.70;77.20;;;;;;5055182;28;20199;-90
2022/07/05 07:13:33;;;;;;;5.45;2.20;;;16.70;77.80;;;;;;5055544;28;20196;-89
2022/07/05 07:15:58;;;;;;;10.05;2.22;;;16.90;77.50;;;;;;5055283;28;20638;-89
2022/07/05 07:18:24;;;;;;;7.97;2.20;;;17.00;75.80;;;;;;5053995;28;20208;-89
2022/07/05 07:20:49;;;;;;;4.68;1.58;;;17.10;76.20;;;;;;5054038;28;20196;-89
2022/07/05 07:23:16;;;;;;;4.38;1.48;;;17.30;74.40;;;;;;5053916;28;20211;-90
2022/07/05 07:25:42;;;;;;;6.75;2.05;;;17.30;72.60;;;;;;5055265;28;20275;-89
2022/07/05 07:28:08;;;;;;;10.50;1.83;;;17.50;73.20;;;;;;5055066;28;20214;-89
2022/07/05 07:30:33;;;;;;;4.57;1.58;;;17.50;72.50;;;;;;5053995;28;20183;-89
2022/07/05 07:32:59;;;;;;;9.80;2.25;;;17.80;72.70;;;;;;5053714;28;20202;-89
2022/07/05 07:35:24;;;;;;;3.78;1.40;;;17.80;71.60;;;;;;5054055;28;20521;-90
2022/07/05 07:37:50;;;;;;;4.53;1.27;;;17.80;71.00;;;;;;5053695;28;20179;-89
2022/07/05 07:40:16;;;;;;;2.78;1.25;;;17.70;69.00;;;;;;5053619;28;20172;-89
2022/07/05 07:42:41;;;;;;;6.85;1.83;;;17.80;68.00;;;;;;5054812;28;20195;-90
2022/07/05 07:45:08;;;;;;;8.40;1.65;;;17.70;69.50;;;;;;5053579;28;20199;-89
2022/07/05 07:47:34;;;;;;;3.65;1.60;;;17.90;70.10;;;;;;5054358;28;20184;-89
2022/07/05 07:50:01;;;;;;;3.03;1.38;;;18.00;69.70;;;;;;5053480;28;20180;-89
2022/07/05 07:52:27;;;;;;;7.00;1.45;;;18.00;67.20;;;;;;5053456;28;20685;-89
2022/07/05 07:54:53;;;;;;;8.13;1.60;;;18.20;67.40;;;;;;5053298;28;20267;-90
2022/07/05 07:57:19;;;;;;;2.47;1.50;;;18.20;65.80;;;;;;5053254;28;20204;-89
2022/07/05 07:59:45;;;;;;;5.72;1.20;;;18.30;66.50;;;;;;5053033;28;20266;-88
2022/07/05 08:02:11;;;;;;;2.22;1.17;;;18.30;67.70;;;;;;5053301;28;20296;-90
2022/07/05 08:04:36;;;;;;;2.05;1.10;;;18.40;66.10;;;;;;5053929;28;20704;-90
2022/07/05 08:07:03;;;;;;;5.53;1.27;;;18.60;65.90;;;;;;5053558;28;20184;-89
2022/07/05 08:09:29;;;;;;;3.50;0.75;;;18.60;65.10;;;;;;5053506;28;20230;-90
2022/07/05 08:11:55;;;;;;;1.27;0.88;;;18.30;58.30;;;;;;5053202;28;20192;-89
2022/07/05 08:14:21;;;;;;;1.63;0.68;;;18.10;59.60;;;;;;5053932;28;20199;-90
2022/07/05 08:16:48;;;;;;;1.50;0.70;;;18.00;57.90;;;;;;5053331;28;20199;-90
2022/07/05 08:21:57;;;;;;;1.95;0.85;;;17.80;58.60;;;;;;5054708;28;20738;-89
2022/07/05 08:24:23;;;;;;;1.50;0.80;;;17.70;61.10;;;;;;5053200;28;20274;-89
2022/07/05 08:26:48;;;;;;;0.70;0.70;;;17.60;60.50;;;;;;5054594;28;20666;-89
2022/07/05 08:29:14;;;;;;;0.73;0.73;;;17.60;61.80;;;;;;5053399;28;20263;-90
2022/07/05 08:31:47;;;;;;;1.95;0.85;;;17.50;62.00;;;;;;5054909;28;20207;-90
2022/07/05 08:34:13;;;;;;;4.15;1.20;;;17.50;63.20;;;;;;5052847;28;20576;-90
2022/07/05 08:36:41;;;;;;;3.67;1.10;;;17.40;65.30;;;;;;5052841;28;20171;-91
2022/07/05 08:39:08;;;;;;;4.78;1.50;;;17.30;67.00;;;;;;5054111;28;20213;-89
2022/07/05 08:41:36;;;;;;;4.75;1.23;;;17.30;67.80;;;;;;5053091;28;20756;-88
2022/07/05 08:44:03;;;;;;;2.63;1.10;;;17.40;68.50;;;;;;5053861;28;20176;-89
2022/07/05 08:46:31;;;;;;;6.35;1.38;;;17.50;68.50;;;;;;5052867;28;20188;-89
2022/07/05 08:49:01;;;;;;;5.70;1.50;;;17.60;68.20;;;;;;5053891;28;20195;-88
2022/07/05 08:51:28;;;;;;;2.88;1.42;;;17.60;68.40;;;;;;5052557;28;20196;-89
2022/07/05 08:53:57;;;;;;;4.80;1.25;;;17.70;67.70;;;;;;5052810;28;20195;-90
2022/07/05 08:56:23;;;;;;;3.90;1.63;;;17.70;68.70;;;;;;5053986;28;20164;-90
2022/07/05 08:58:49;;;;;;;5.68;2.05;;;17.90;68.40;;;;;;5052323;28;20172;-89
2022/07/05 09:01:15;;;;;;;2.78;1.10;;;18.10;67.70;;;;;;5053802;28;20720;-90
2022/07/05 09:03:47;;;;;;;2.17;0.93;;;18.70;68.10;;;;;;5052625;28;20266;-88
2022/07/05 09:06:24;;;;;;;5.18;1.30;;;18.90;65.70;;;;;;5053837;28;20542;-87
2022/07/05 09:08:54;;;;;;;3.60;1.20;;;18.70;64.80;;;;;;5052955;28;20168;-87
2022/07/05 09:11:24;;;;;;;7.15;1.00;;;18.40;64.40;;;;;;5053543;28;20273;-87
2022/07/05 09:13:50;;;;;;;4.25;0.90;;;18.50;62.80;;;;;;5052682;28;20322;-87
2022/07/05 09:16:16;;;;;;;2.95;1.10;;;18.70;63.80;;;;;;5054119;28;20176;-87
2022/07/05 09:18:43;;;;;;;2.95;0.88;;;19.10;63.00;;;;;;5054417;28;20168;-87
2022/07/05 09:21:18;;;;;;;1.48;0.77;;;19.10;60.20;;;;;;5052406;28;20191;-88
2022/07/05 09:23:53;;;;;;;3.60;0.70;;;19.30;61.00;;;;;;5052523;28;20667;-88
2022/07/05 09:26:19;;;;;;;2.78;0.90;;;19.70;58.80;;;;;;5054845;28;20699;-89
2022/07/05 09:28:55;;;;;;;6.45;1.02;;;19.60;57.20;;;;;;5052697;28;20179;-87
2022/07/05 09:31:49;;;;;;;1.63;0.75;;;19.40;56.70;;;;;;5052524;28;20265;-86
2022/07/05 09:34:19;;;;;;;4.47;0.80;;;19.90;57.30;;;;;;5051576;28;20212;-88
2022/07/05 09:36:52;;;;;;;2.17;0.63;;;20.00;54.60;;;;;;5052743;28;20593;-88
2022/07/05 09:39:34;;;;;;;1.17;0.65;;;19.80;56.10;;;;;;5052599;28;20756;-88
2022/07/05 09:42:12;;;;;;;3.30;0.68;;;19.80;57.20;;;;;;5052562;28;20200;-87
2022/07/05 09:44:48;;;;;;;2.20;0.57;;;19.60;54.50;;;;;;5054001;28;20614;-87
2022/07/05 09:47:16;;;;;;;3.10;0.70;;;19.30;53.00;;;;;;5052454;28;20258;-88
2022/07/05 09:49:44;;;;;;;2.67;0.75;;;19.20;54.60;;;;;;5052650;28;20646;-89
2022/07/05 09:52:12;;;;;;;1.02;0.57;;;19.10;55.70;;;;;;5052107;28;20208;-88
2022/07/05 09:54:37;;;;;;;1.02;0.50;;;19.20;56.00;;;;;;5052901;28;20287;-90
2022/07/05 09:57:03;;;;;;;1.88;0.60;;;18.80;56.50;;;;;;5053089;28;20602;-89
2022/07/05 09:59:29;;;;;;;2.65;0.80;;;18.80;58.00;;;;;;5053110;28;20531;-90
2022/07/05 10:01:54;;;;;;;1.55;0.73;;;18.70;57.70;;;;;;5052009;28;20188;-90
2022/07/05 10:04:20;;;;;;;3.80;0.90;;;18.40;58.20;;;;;;5051788;28;20191;-90
2022/07/05 10:06:46;;;;;;;1.63;0.60;;;18.40;58.60;;;;;;5052427;28;20179;-89
2022/07/05 10:09:14;;;;;;;2.13;0.70;;;18.80;59.20;;;;;;5052814;28;20180;-89
2022/07/05 10:11:41;;;;;;;3.83;0.73;;;19.00;58.20;;;;;;5051952;28;20203;-90
2022/07/05 10:14:17;;;;;;;1.45;0.70;;;19.20;56.80;;;;;;5052777;28;20222;-90
2022/07/05 10:16:57;;;;;;;1.38;0.80;;;19.20;54.10;;;;;;5055471;28;20634;-85
2022/07/05 10:19:28;;;;;;;1.55;0.60;;;19.20;54.80;;;;;;5055312;28;20652;-89
2022/07/05 10:21:54;;;;;;;2.25;0.73;;;19.10;56.90;;;;;;5055339;28;20191;-88
2022/07/05 10:24:20;;;;;;;0.55;0.47;;;19.30;56.90;;;;;;5054785;28;20202;-90
2022/07/05 10:26:47;;;;;;;3.53;0.75;;;19.50;56.10;;;;;;5054854;28;20270;-89
2022/07/05 10:29:14;;;;;;;1.92;0.70;;;19.40;55.90;;;;;;5054755;28;20180;-89
2022/07/05 10:31:40;;;;;;;2.05;0.82;;;19.80;56.90;;;;;;5054699;28;20283;-89
2022/07/05 10:34:09;;;;;;;2.45;0.95;;;20.10;55.60;;;;;;5054795;28;20753;-89
2022/07/05 10:36:35;;;;;;;2.45;0.93;;;20.10;54.60;;;;;;5055574;28;20169;-89
2022/07/05 10:39:02;;;;;;;1.10;0.65;;;19.30;56.40;;;;;;5056301;28;20191;-89
2022/07/05 10:41:29;;;;;;;2.15;0.85;;;19.50;56.30;;;;;;5054635;28;20203;-89
2022/07/05 10:43:57;;;;;;;2.45;0.90;;;19.30;56.60;;;;;;5055825;28;20719;-89
2022/07/05 10:46:42;;;;;;;3.78;0.73;;;19.20;56.70;;;;;;5054473;28;20191;-89
2022/07/05 10:49:13;;;;;;;2.10;0.70;;;19.60;57.20;;;;;;5054460;28;20680;-90
2022/07/05 10:51:39;;;;;;;1.60;0.88;;;19.90;54.80;;;;;;5054349;28;20203;-90
2022/07/05 10:54:05;;;;;;;1.73;0.88;;;20.20;54.40;;;;;;5055853;28;20556;-89
2022/07/05 10:56:31;;;;;;;4.95;1.20;;;20.10;52.80;;;;;;5054399;28;20202;-90
2022/07/05 10:59:09;;;;;;;4.30;1.00;;;20.30;53.90;;;;;;5054228;28;20183;-89
2022/07/05 11:01:39;;;;;;;2.15;0.95;;;20.10;55.40;;;;;;5055634;28;20533;-89
2022/07/05 11:04:05;;;;;;;3.17;0.80;;;20.70;56.80;;;;;;5054476;28;20178;-89
2022/07/05 11:06:51;;;;;;;1.95;0.85;;;21.00;53.30;;;;;;5054045;28;20267;-89
2022/07/05 11:09:18;;;;;;;1.73;0.90;;;20.70;53.70;;;;;;5053996;28;20195;-89
2022/07/05 11:11:47;;;;;;;1.50;0.70;;;20.60;52.60;;;;;;5053840;28;20196;-89
2022/07/05 11:14:19;;;;;;;0.93;0.57;;;20.80;54.40;;;;;;5053990;28;20690;-90
2022/07/05 11:16:46;;;;;;;0.82;0.60;;;21.40;53.30;;;;;;5055108;28;20171;-89
2022/07/05 11:19:16;;;;;;;3.90;0.77;;;21.20;50.70;;;;;;5053885;28;20180;-90
2022/07/05 11:22:01;;;;;;;10.63;1.45;;;20.90;51.40;;;;;;5053770;28;20195;-89
2022/07/05 11:24:29;;;;;;;0.77;0.73;;;21.20;51.10;;;;;;5053786;28;20192;-89
2022/07/05 11:26:58;;;;;;;2.55;0.63;;;20.40;51.70;;;;;;5053397;28;20650;-89
2022/07/05 11:29:46;;;;;;;4.38;0.75;;;20.30;51.30;;;;;;5053683;28;20182;-88
2022/07/05 11:32:13;;;;;;;2.70;0.80;;;20.40;51.10;;;;;;5054885;28;20221;-88
2022/07/05 11:34:40;;;;;;;2.50;0.60;;;20.70;52.90;;;;;;5054923;28;20249;-90
2022/07/05 11:37:24;;;;;;;2.28;0.90;;;20.90;53.80;;;;;;5054828;28;20540;-89
2022/07/05 11:40:10;;;;;;;1.02;0.60;;;20.70;52.80;;;;;;5053466;28;20179;-89
2022/07/05 11:42:47;;;;;;;1.33;0.68;;;20.70;50.90;;;;;;5053352;28;20191;-89
2022/07/05 11:45:13;;;;;;;4.95;1.08;;;20.70;52.70;;;;;;5053708;28;20179;-89
2022/07/05 11:47:40;;;;;;;2.35;0.75;;;20.60;53.20;;;;;;5053308;28;20199;-89
2022/07/05 11:50:07;;;;;;;1.83;0.82;;;20.50;54.80;;;;;;5053458;28;20696;-89
2022/07/05 11:52:35;;;;;;;5.78;1.10;;;20.10;54.30;;;;;;5053648;28;20214;-89
2022/07/05 11:55:02;;;;;;;3.17;1.13;;;19.80;55.30;;;;;;5053214;28;20176;-89
2022/07/05 11:57:28;;;;;;;2.08;1.17;;;20.30;56.00;;;;;;5054454;28;20175;-88
2022/07/05 11:59:54;;;;;;;5.78;0.95;;;20.80;57.40;;;;;;5054251;28;20168;-88
2022/07/05 12:02:20;;;;;;;3.28;0.73;;;21.20;57.90;;;;;;5052975;28;20226;-88
2022/07/05 12:04:56;;;;;;;5.28;1.10;;;21.10;54.10;;;;;;5053039;28;20172;-88
2022/07/05 12:07:29;;;;;;;3.83;0.77;;;21.50;54.80;;;;;;5053423;28;20171;-89
2022/07/05 12:12:44;;;;;;;5.20;1.02;;;20.30;54.50;;;;;;5054554;28;20283;-88
2022/07/05 12:15:18;;;;;;;1.52;0.90;;;20.30;55.50;;;;;;5054683;28;20152;-89
2022/07/05 12:17:45;;;;;;;1.58;0.93;;;20.60;56.40;;;;;;5052839;28;20171;-89
2022/07/05 12:20:13;;;;;;;1.27;0.80;;;21.10;56.40;;;;;;5052802;28;20207;-89
2022/07/05 12:22:42;;;;;;;2.25;0.77;;;21.60;56.10;;;;;;5052652;28;20247;-89
2022/07/05 12:25:11;;;;;;;3.22;1.02;;;21.90;52.80;;;;;;5052436;28;20184;-89
2022/07/05 12:27:39;;;;;;;2.38;1.08;;;21.90;52.30;;;;;;5052608;28;20553;-89
2022/07/05 12:30:05;;;;;;;5.55;0.98;;;20.80;55.50;;;;;;5052994;28;20169;-89
2022/07/05 12:32:32;;;;;;;3.22;1.08;;;20.90;55.40;;;;;;5052354;28;20188;-89
2022/07/05 12:34:58;;;;;;;5.22;1.00;;;21.30;55.20;;;;;;5053708;28;20172;-88
2022/07/05 12:37:25;;;;;;;3.15;1.02;;;21.60;53.50;;;;;;5053216;28;20183;-89
2022/07/05 12:40:06;;;;;;;2.85;1.00;;;21.20;53.60;;;;;;5052586;28;20234;-88
2022/07/05 12:42:33;;;;;;;3.70;0.80;;;20.90;57.70;;;;;;5053527;28;20190;-89
2022/07/05 12:45:15;;;;;;;6.97;1.13;;;20.90;58.10;;;;;;5053890;28;20174;-88
2022/07/05 12:47:55;;;;;;;3.80;1.05;;;20.60;58.10;;;;;;5053821;28;20171;-89
2022/07/05 12:50:28;;;;;;;2.58;1.00;;;20.30;58.00;;;;;;5052223;28;20208;-88
2022/07/05 12:58:49;;;;;;;1.83;0.93;;;20.20;58.90;;;;;;5053989;28;20172;-89
2022/07/05 13:01:36;;;;;;;1.98;1.02;;;19.80;60.80;;;;;;5052027;28;20195;-88